createdAt,value
2022-09-11T00:00:43.259Z,98035.75
2022-09-11T00:13:51.256Z,98035.13
2022-09-11T00:14:54.820Z,98035.44
2022-09-11T00:15:59.571Z,98034.16
2022-09-11T00:17:03.475Z,98030.19
2022-09-11T00:18:09.277Z,98032.34
2022-09-11T00:19:16.176Z,98027.78
2022-09-11T00:20:21.701Z,98029.56
2022-09-11T00:21:26.370Z,98036.44
2022-09-11T00:22:34.234Z,98031.88
2022-09-11T00:23:41.157Z,98023.03
2022-09-11T00:24:46.078Z,98027.31
2022-09-11T00:34:03.103Z,98019.91
2022-09-11T00:35:08.330Z,98009.41
2022-09-11T00:36:15.995Z,98017.28
2022-09-11T00:37:19.814Z,98024.34
2022-09-11T00:38:24.798Z,98028.41
2022-09-11T00:39:29.278Z,98034.66
2022-09-11T00:40:33.019Z,98033.03
2022-09-11T00:41:39.262Z,98029.25
2022-09-11T00:42:43.497Z,98037.94
2022-09-11T00:43:54.101Z,98029.25
2022-09-11T00:45:03.900Z,98032.84
2022-09-11T00:46:09.148Z,98033.84
2022-09-11T00:47:15.522Z,98027.78
2022-09-11T00:48:25.060Z,98027.91
2022-09-11T00:49:34.324Z,98029.56
2022-09-11T00:50:38.209Z,98033.97
2022-09-11T00:51:43.578Z,98030.53
2022-09-11T00:52:53.073Z,98031.53
2022-09-11T00:53:58.901Z,98026.44
2022-09-11T00:55:05.945Z,98029.88
2022-09-11T00:56:11.956Z,98030.72
2022-09-11T00:57:15.199Z,98039.38
2022-09-11T00:58:21.529Z,98031.53
2022-09-11T00:59:27.390Z,98032.34
2022-09-11T01:00:32.558Z,98038.91
2022-09-11T01:01:37.597Z,98036.13
2022-09-11T01:02:45.159Z,98036.00
2022-09-11T01:03:48.607Z,98029.78
2022-09-11T01:04:54.949Z,98036.66
2022-09-11T01:05:58.882Z,98028.59
2022-09-11T01:07:04.770Z,98024.03
2022-09-11T01:08:08.498Z,98030.75
2022-09-11T01:09:13.181Z,98036.00
2022-09-11T01:10:17.365Z,98038.59
2022-09-11T01:11:32.499Z,98030.59
2022-09-11T01:12:42.265Z,98032.88
2022-09-11T01:13:51.087Z,98031.88
2022-09-11T01:14:58.926Z,98027.31
2022-09-11T01:16:10.469Z,98028.94
2022-09-11T01:17:21.265Z,98033.22
2022-09-11T01:18:29.850Z,98034.03
2022-09-11T01:19:49.666Z,98026.97
2022-09-11T01:21:14.142Z,98030.28
2022-09-11T01:22:36.416Z,98036.31
2022-09-11T01:24:24.096Z,98033.34
2022-09-11T01:25:32.562Z,98026.31
2022-09-11T01:26:49.494Z,98023.53
2022-09-11T01:27:54.863Z,98033.84
2022-09-11T01:29:03.169Z,98032.88
2022-09-11T01:30:11.706Z,98032.72
2022-09-11T01:31:19.837Z,98031.88
2022-09-11T01:32:24.904Z,98027.47
2022-09-11T01:33:32.247Z,98027.47
2022-09-11T01:34:39.940Z,98022.06
2022-09-11T01:35:54.254Z,98032.38
2022-09-11T01:37:01.726Z,98022.56
2022-09-11T01:38:09.923Z,98025.81
2022-09-11T01:39:14.840Z,98019.75
2022-09-11T01:40:28.234Z,98019.94
2022-09-11T01:41:41.129Z,98025.19
2022-09-11T01:42:46.463Z,98020.91
2022-09-11T01:43:56.661Z,98017.47
2022-09-11T01:45:00.811Z,98029.13
2022-09-11T01:46:10.579Z,98024.84
2022-09-11T01:47:15.962Z,98022.22
2022-09-11T01:48:25.092Z,98024.69
2022-09-11T01:49:35.559Z,98020.44
2022-09-11T01:50:41.045Z,98025.50
2022-09-11T01:51:46.062Z,98022.56
2022-09-11T01:52:54.710Z,98015.50
2022-09-11T01:54:00.521Z,98017.31
2022-09-11T01:55:24.561Z,98009.59
2022-09-11T01:56:32.087Z,98010.56
2022-09-11T01:57:38.834Z,98010.75
2022-09-11T01:58:44.190Z,98017.00
2022-09-11T02:00:18.447Z,98011.75
2022-09-11T02:01:31.810Z,98010.06
2022-09-11T02:02:58.216Z,98009.25
2022-09-11T02:04:07.651Z,98013.53
2022-09-11T02:06:45.371Z,98004.69
2022-09-11T02:07:53.829Z,98000.09
2022-09-11T02:09:00.435Z,98001.72
2022-09-11T02:10:09.591Z,98001.72
2022-09-11T02:11:22.732Z,98000.72
2022-09-11T02:12:31.730Z,98000.09
2022-09-11T02:13:39.946Z,98003.69
2022-09-11T02:15:07.524Z,98006.00
2022-09-11T02:16:35.888Z,98001.75
2022-09-11T02:17:48.465Z,97990.44
2022-09-11T02:18:58.661Z,97997.13
2022-09-11T02:20:03.964Z,97995.34
2022-09-11T02:21:07.610Z,97998.78
2022-09-11T02:22:13.739Z,97999.94
2022-09-11T02:23:17.806Z,97994.84
2022-09-11T02:24:24.303Z,97996.81
2022-09-11T02:25:28.066Z,98010.91
2022-09-11T02:26:39.171Z,98001.41
2022-09-11T02:27:43.765Z,97995.34
2022-09-11T02:28:48.926Z,98000.59
2022-09-11T02:29:54.226Z,97997.13
2022-09-11T02:31:08.121Z,97991.25
2022-09-11T02:32:13.932Z,97991.59
2022-09-11T02:33:31.143Z,97993.72
2022-09-11T02:34:36.360Z,97981.75
2022-09-11T02:35:47.188Z,97993.38
2022-09-11T02:37:09.571Z,97998.81
2022-09-11T02:38:19.441Z,97994.06
2022-09-11T02:39:45.840Z,97991.44
2022-09-11T02:40:56.832Z,97995.84
2022-09-11T02:42:24.952Z,97997.50
2022-09-11T02:43:47.435Z,98001.09
2022-09-11T02:44:58.650Z,97992.25
2022-09-11T02:46:19.805Z,97995.84
2022-09-11T02:47:33.262Z,97994.06
2022-09-11T02:48:47.672Z,97995.19
2022-09-11T02:50:00.023Z,97999.75
2022-09-11T02:51:10.418Z,97991.88
2022-09-11T02:52:21.190Z,97991.88
2022-09-11T02:53:31.141Z,97992.88
2022-09-11T02:54:40.691Z,97991.06
2022-09-11T02:55:57.312Z,97992.03
2022-09-11T02:57:05.203Z,97987.78
2022-09-11T02:58:13.822Z,97992.03
2022-09-11T02:59:21.324Z,97991.22
2022-09-11T03:00:25.730Z,97988.59
2022-09-11T03:01:29.276Z,97991.22
2022-09-11T03:02:42.100Z,97994.66
2022-09-11T03:03:47.169Z,97988.59
2022-09-11T03:04:51.963Z,97993.00
2022-09-11T03:05:56.133Z,97993.84
2022-09-11T03:07:01.419Z,97992.88
2022-09-11T03:08:08.034Z,97987.63
2022-09-11T03:09:13.344Z,97997.81
2022-09-11T03:10:17.040Z,97992.56
2022-09-11T03:11:30.922Z,97990.09
2022-09-11T03:12:57.451Z,97993.38
2022-09-11T03:14:00.553Z,97991.72
2022-09-11T03:15:06.055Z,97996.13
2022-09-11T03:16:10.699Z,97990.91
2022-09-11T03:17:14.917Z,97991.88
2022-09-11T03:18:21.322Z,97989.25
2022-09-11T03:19:25.319Z,97992.88
2022-09-11T03:20:29.872Z,97993.84
2022-09-11T03:21:34.060Z,97991.22
2022-09-11T03:22:40.050Z,97992.88
2022-09-11T03:23:43.658Z,97993.84
2022-09-11T03:24:48.534Z,97994.50
2022-09-11T03:25:52.081Z,97985.00
2022-09-11T03:26:57.077Z,97985.00
2022-09-11T03:28:00.861Z,97982.38
2022-09-11T03:29:05.973Z,97981.41
2022-09-11T03:30:10.319Z,97986.66
2022-09-11T03:31:14.907Z,97989.25
2022-09-11T03:32:19.531Z,97991.72
2022-09-11T03:33:26.488Z,97989.78
2022-09-11T03:34:30.252Z,97992.25
2022-09-11T03:35:34.693Z,97991.44
2022-09-11T03:36:40.472Z,97993.06
2022-09-11T03:37:43.995Z,97990.63
2022-09-11T03:38:49.139Z,98000.13
2022-09-11T03:39:54.975Z,97999.94
2022-09-11T03:41:00.003Z,98000.75
2022-09-11T03:42:03.965Z,97999.75
2022-09-11T03:43:09.766Z,97996.19
2022-09-11T03:44:14.027Z,98000.44
2022-09-11T03:45:18.619Z,97994.38
2022-09-11T03:46:24.753Z,97993.56
2022-09-11T03:47:29.789Z,97984.72
2022-09-11T03:48:35.582Z,97983.72
2022-09-11T03:49:40.005Z,97990.59
2022-09-11T03:50:44.055Z,97990.59
2022-09-11T03:51:48.791Z,97984.38
2022-09-11T03:52:52.012Z,97987.81
2022-09-11T03:53:56.102Z,97986.03
2022-09-11T03:54:59.434Z,97985.19
2022-09-11T03:56:06.720Z,97984.22
2022-09-11T03:57:16.471Z,97992.72
2022-09-11T03:58:20.909Z,97986.50
2022-09-11T03:59:23.920Z,97988.13
2022-09-11T04:00:28.307Z,97987.00
2022-09-11T04:01:33.127Z,97992.22
2022-09-11T04:02:37.191Z,97991.25
2022-09-11T04:03:42.365Z,97984.19
2022-09-11T04:04:52.374Z,97997.97
2022-09-11T04:05:59.952Z,97990.75
2022-09-11T04:07:04.167Z,97994.00
2022-09-11T04:08:07.299Z,98000.94
2022-09-11T04:09:12.601Z,97991.88
2022-09-11T04:10:15.819Z,97991.72
2022-09-11T04:11:19.881Z,97995.81
2022-09-11T04:12:22.980Z,97997.47
2022-09-11T04:13:30.821Z,97997.47
2022-09-11T04:14:36.102Z,98002.72
2022-09-11T04:15:42.861Z,98003.53
2022-09-11T04:16:46.569Z,97997.28
2022-09-11T04:17:50.664Z,98010.25
2022-09-11T04:18:56.364Z,97996.97
2022-09-11T04:20:01.395Z,98002.03
2022-09-11T04:21:09.091Z,98001.72
2022-09-11T04:22:12.260Z,97999.91
2022-09-11T04:23:17.572Z,98004.97
2022-09-11T04:24:20.942Z,98007.47
2022-09-11T04:25:25.033Z,98007.09
2022-09-11T04:26:30.206Z,97997.44
2022-09-11T04:27:42.656Z,97997.44
2022-09-11T04:28:50.858Z,98002.69
2022-09-11T04:29:55.211Z,98007.09
2022-09-11T04:31:04.772Z,98002.69
2022-09-11T04:32:11.851Z,98007.94
2022-09-11T04:33:16.225Z,98006.13
2022-09-11T04:34:21.799Z,98003.50
2022-09-11T04:35:26.211Z,98001.03
2022-09-11T04:36:33.840Z,98013.84
2022-09-11T04:37:37.739Z,98005.97
2022-09-11T04:38:42.151Z,98011.22
2022-09-11T04:39:49.206Z,98012.03
2022-09-11T04:40:53.511Z,98011.22
2022-09-11T04:41:57.670Z,98006.78
2022-09-11T04:43:02.500Z,98009.22
2022-09-11T04:44:05.863Z,98011.53
2022-09-11T04:45:16.593Z,98010.53
2022-09-11T04:46:20.470Z,98006.94
2022-09-11T04:47:25.059Z,98001.50
2022-09-11T04:48:28.099Z,98010.19
2022-09-11T04:49:34.003Z,98007.41
2022-09-11T04:50:37.252Z,98002.00
2022-09-11T04:51:52.360Z,98008.25
2022-09-11T04:52:58.840Z,98011.84
2022-09-11T04:54:04.207Z,98005.75
2022-09-11T04:55:12.011Z,98018.06
2022-09-11T04:56:16.267Z,98013.63
2022-09-11T04:57:22.413Z,98014.31
2022-09-11T04:58:26.512Z,98009.88
2022-09-11T04:59:29.681Z,98019.38
2022-09-11T05:00:43.421Z,98015.13
2022-09-11T05:01:46.756Z,98015.94
2022-09-11T05:02:53.431Z,98016.75
2022-09-11T05:03:56.872Z,98013.13
2022-09-11T05:05:03.018Z,98008.56
2022-09-11T05:06:06.340Z,98018.69
2022-09-11T05:07:14.662Z,98015.44
2022-09-11T05:08:24.930Z,98007.25
2022-09-11T05:09:30.172Z,98012.50
2022-09-11T05:10:38.142Z,98011.97
2022-09-11T05:11:43.294Z,98009.19
2022-09-11T05:12:46.547Z,98016.69
2022-09-11T05:13:50.790Z,98011.94
2022-09-11T05:14:53.894Z,98006.38
2022-09-11T05:16:02.675Z,98006.00
2022-09-11T05:17:06.782Z,98011.75
2022-09-11T05:18:15.279Z,98003.69
2022-09-11T05:19:19.240Z,98013.06
2022-09-11T05:20:25.858Z,97998.94
2022-09-11T05:21:29.137Z,98010.88
2022-09-11T05:22:33.287Z,98016.97
2022-09-11T05:23:37.742Z,98008.13
2022-09-11T05:24:42.613Z,98008.75
2022-09-11T05:25:45.821Z,98008.75
2022-09-11T05:26:50.238Z,98003.50
2022-09-11T05:27:53.432Z,98002.50
2022-09-11T05:28:58.252Z,98005.13
2022-09-11T05:30:01.807Z,98013.69
2022-09-11T05:31:12.942Z,98004.00
2022-09-11T05:32:17.197Z,98007.44
2022-09-11T05:33:20.662Z,98007.59
2022-09-11T05:34:24.970Z,98015.31
2022-09-11T05:35:32.354Z,98002.19
2022-09-11T05:36:37.606Z,98015.94
2022-09-11T05:37:41.562Z,98010.53
2022-09-11T05:38:47.476Z,98015.63
2022-09-11T05:39:52.323Z,98009.53
2022-09-11T05:40:56.849Z,98010.53
2022-09-11T05:42:00.679Z,98004.44
2022-09-11T05:43:07.890Z,98005.44
2022-09-11T05:44:11.046Z,98007.91
2022-09-11T05:45:15.607Z,98005.44
2022-09-11T05:46:20.130Z,98005.44
2022-09-11T05:47:28.695Z,98005.44
2022-09-11T05:48:34.319Z,98003.00
2022-09-11T05:49:39.838Z,98006.75
2022-09-11T05:50:44.508Z,97999.25
2022-09-11T05:51:48.540Z,98009.75
2022-09-11T05:52:52.065Z,98009.75
2022-09-11T05:53:57.032Z,98004.31
2022-09-11T05:55:00.292Z,98012.69
2022-09-11T05:56:10.962Z,98002.66
2022-09-11T05:57:15.488Z,98012.00
2022-09-11T05:58:19.550Z,98010.00
2022-09-11T05:59:24.315Z,98009.03
2022-09-11T06:00:27.992Z,98007.38
2022-09-11T06:01:34.291Z,98011.66
2022-09-11T06:02:46.042Z,98015.09
2022-09-11T06:03:50.381Z,98011.31
2022-09-11T06:04:56.710Z,98017.06
2022-09-11T06:06:03.728Z,98013.94
2022-09-11T06:07:07.011Z,98016.19
2022-09-11T06:08:13.370Z,98008.97
2022-09-11T06:09:16.666Z,98016.88
2022-09-11T06:10:21.442Z,98026.56
2022-09-11T06:11:24.473Z,98028.38
2022-09-11T06:12:28.909Z,98021.31
2022-09-11T06:13:35.949Z,98017.69
2022-09-11T06:14:40.616Z,98010.28
2022-09-11T06:15:46.874Z,98009.09
2022-09-11T06:16:52.387Z,98026.34
2022-09-11T06:17:56.241Z,98017.28
2022-09-11T06:19:00.282Z,98019.72
2022-09-11T06:20:04.174Z,98012.84
2022-09-11T06:21:13.203Z,98014.84
2022-09-11T06:22:23.952Z,98019.28
2022-09-11T06:23:30.189Z,98010.41
2022-09-11T06:24:35.407Z,98018.09
2022-09-11T06:25:39.760Z,98016.78
2022-09-11T06:26:46.712Z,98011.34
2022-09-11T06:27:50.764Z,98015.59
2022-09-11T06:28:56.077Z,98009.19
2022-09-11T06:30:00.252Z,98017.88
2022-09-11T06:31:05.648Z,98020.50
2022-09-11T06:32:11.274Z,98017.88
2022-09-11T06:33:15.751Z,98011.63
2022-09-11T06:34:21.361Z,98024.78
2022-09-11T06:35:26.729Z,98010.47
2022-09-11T06:36:32.295Z,98006.84
2022-09-11T06:37:39.119Z,98015.38
2022-09-11T06:38:44.591Z,98013.22
2022-09-11T06:39:51.660Z,98010.41
2022-09-11T06:41:03.205Z,98009.41
2022-09-11T06:42:10.929Z,98018.97
2022-09-11T06:43:15.076Z,98019.78
2022-09-11T06:44:19.444Z,98008.44
2022-09-11T06:45:22.599Z,98012.03
2022-09-11T06:46:27.286Z,98016.50
2022-09-11T06:47:32.962Z,98021.13
2022-09-11T06:48:37.272Z,98019.31
2022-09-11T06:49:41.882Z,98012.59
2022-09-11T06:51:14.189Z,98008.16
2022-09-11T06:52:20.030Z,98003.03
2022-09-11T06:53:36.690Z,98013.22
2022-09-11T06:54:44.761Z,98019.13
2022-09-11T06:55:52.082Z,98020.78
2022-09-11T06:56:55.202Z,98024.22
2022-09-11T06:57:59.350Z,98021.22
2022-09-11T06:59:06.646Z,98013.81
2022-09-11T07:00:11.068Z,98016.94
2022-09-11T07:01:19.354Z,98012.28
2022-09-11T07:02:26.994Z,98013.09
2022-09-11T07:03:32.424Z,98015.56
2022-09-11T07:04:37.291Z,98015.56
2022-09-11T07:05:47.659Z,98010.28
2022-09-11T07:06:54.101Z,98028.69
2022-09-11T07:08:02.238Z,98015.56
2022-09-11T07:09:11.714Z,98019.03
2022-09-11T07:10:25.379Z,98011.28
2022-09-11T07:11:36.403Z,98013.28
2022-09-11T07:12:41.620Z,98014.28
2022-09-11T07:13:46.210Z,98023.16
2022-09-11T07:14:50.710Z,98024.00
2022-09-11T07:16:01.804Z,98014.44
2022-09-11T07:17:05.554Z,98025.97
2022-09-11T07:18:09.880Z,98016.25
2022-09-11T07:19:12.990Z,98025.78
2022-09-11T07:20:18.854Z,98016.09
2022-09-11T07:21:26.889Z,98013.63
2022-09-11T07:22:35.301Z,98020.53
2022-09-11T07:23:42.430Z,98011.00
2022-09-11T07:24:47.481Z,98013.47
2022-09-11T07:25:53.618Z,98016.75
2022-09-11T07:26:56.661Z,98020.66
2022-09-11T07:28:07.906Z,98017.50
2022-09-11T07:29:11.911Z,98013.69
2022-09-11T07:30:16.414Z,98019.44
2022-09-11T07:31:25.920Z,98020.06
2022-09-11T07:32:29.354Z,98023.16
2022-09-11T07:33:33.519Z,98017.91
2022-09-11T07:34:39.788Z,98022.78
2022-09-11T07:35:46.661Z,98026.91
2022-09-11T07:36:52.175Z,98017.00
2022-09-11T07:37:58.860Z,98017.47
2022-09-11T07:39:05.129Z,98007.78
2022-09-11T07:40:14.594Z,98016.31
2022-09-11T07:41:20.017Z,98013.31
2022-09-11T07:42:24.309Z,98011.16
2022-09-11T07:43:28.732Z,98014.72
2022-09-11T07:44:32.006Z,98018.44
2022-09-11T07:45:36.368Z,98018.59
2022-09-11T07:46:41.753Z,98017.88
2022-09-11T07:47:47.680Z,98025.25
2022-09-11T07:48:51.612Z,98027.50
2022-09-11T07:49:55.708Z,98026.13
2022-09-11T07:51:02.543Z,98021.50
2022-09-11T07:52:07.958Z,98021.16
2022-09-11T07:53:19.723Z,98028.69
2022-09-11T07:54:29.230Z,98025.06
2022-09-11T07:55:35.040Z,98029.31
2022-09-11T07:56:41.439Z,98032.97
2022-09-11T07:57:47.396Z,98032.97
2022-09-11T07:58:52.530Z,98026.22
2022-09-11T07:59:56.096Z,98039.25
2022-09-11T08:01:00.657Z,98031.16
2022-09-11T08:02:04.500Z,98037.03
2022-09-11T08:03:09.229Z,98033.25
2022-09-11T08:04:14.701Z,98035.69
2022-09-11T08:05:19.307Z,98028.59
2022-09-11T08:06:24.093Z,98039.59
2022-09-11T08:07:30.106Z,98030.50
2022-09-11T08:08:33.542Z,98031.78
2022-09-11T08:09:39.386Z,98033.06
2022-09-11T08:10:43.065Z,98039.59
2022-09-11T08:11:49.030Z,98030.97
2022-09-11T08:12:59.401Z,98038.59
2022-09-11T08:14:07.606Z,98040.97
2022-09-11T08:15:11.841Z,98036.22
2022-09-11T08:16:15.019Z,98045.28
2022-09-11T08:17:20.382Z,98039.13
2022-09-11T08:18:25.380Z,98038.44
2022-09-11T08:19:28.537Z,98035.72
2022-09-11T08:20:36.660Z,98034.75
2022-09-11T08:21:39.929Z,98038.72
2022-09-11T08:22:44.229Z,98041.25
2022-09-11T08:23:49.289Z,98035.47
2022-09-11T08:24:54.851Z,98036.97
2022-09-11T08:25:59.430Z,98044.38
2022-09-11T08:27:06.207Z,98045.88
2022-09-11T08:28:13.641Z,98044.56
2022-09-11T08:29:18.462Z,98048.28
2022-09-11T08:30:24.551Z,98037.53
2022-09-11T08:31:28.514Z,98044.31
2022-09-11T08:32:35.346Z,98042.34
2022-09-11T08:33:39.027Z,98046.88
2022-09-11T08:34:44.647Z,98043.69
2022-09-11T08:35:47.822Z,98047.03
2022-09-11T08:36:52.241Z,98043.41
2022-09-11T08:37:55.752Z,98053.81
2022-09-11T08:39:03.063Z,98047.53
2022-09-11T08:40:12.115Z,98050.34
2022-09-11T08:41:34.156Z,98045.28
2022-09-11T08:42:41.780Z,98049.72
2022-09-11T08:43:51.089Z,98045.03
2022-09-11T08:44:57.423Z,98045.16
2022-09-11T08:46:22.259Z,98049.63
2022-09-11T08:47:28.049Z,98051.44
2022-09-11T08:48:48.807Z,98041.91
2022-09-11T08:49:57.206Z,98051.31
2022-09-11T08:51:01.563Z,98052.41
2022-09-11T08:52:06.600Z,98052.03
2022-09-11T08:53:15.630Z,98047.00
2022-09-11T08:54:27.784Z,98048.41
2022-09-11T08:55:39.891Z,98050.44
2022-09-11T08:56:45.763Z,98046.56
2022-09-11T08:57:55.154Z,98047.00
2022-09-11T08:59:19.366Z,98051.50
2022-09-11T09:00:26.225Z,98050.91
2022-09-11T09:01:39.016Z,98053.34
2022-09-11T09:03:08.957Z,98047.06
2022-09-11T09:04:36.308Z,98046.47
2022-09-11T09:05:44.243Z,98052.13
2022-09-11T09:06:58.883Z,98052.31
2022-09-11T09:08:14.739Z,98048.25
2022-09-11T09:09:24.712Z,98047.81
2022-09-11T09:10:42.940Z,98046.19
2022-09-11T09:11:52.829Z,98045.53
2022-09-11T09:13:02.532Z,98048.75
2022-09-11T09:14:20.820Z,98056.88
2022-09-11T09:15:32.854Z,98051.56
2022-09-11T09:16:45.664Z,98051.13
2022-09-11T09:17:58.794Z,98050.25
2022-09-11T09:19:08.727Z,98052.66
2022-09-11T09:20:15.070Z,98049.03
2022-09-11T09:21:25.333Z,98050.69
2022-09-11T09:22:35.360Z,98044.81
2022-09-11T09:23:41.794Z,98048.13
2022-09-11T09:24:50.286Z,98045.94
2022-09-11T09:25:56.103Z,98048.41
2022-09-11T09:27:00.801Z,98050.47
2022-09-11T09:28:08.651Z,98049.72
2022-09-11T09:29:20.778Z,98044.06
2022-09-11T09:30:27.735Z,98044.06
2022-09-11T09:31:34.079Z,98048.53
2022-09-11T09:32:43.213Z,98046.72
2022-09-11T09:33:50.164Z,98050.78
2022-09-11T09:34:57.901Z,98047.72
2022-09-11T09:36:13.043Z,98050.09
2022-09-11T09:37:20.462Z,98045.81
2022-09-11T09:38:28.914Z,98050.84
2022-09-11T09:39:32.565Z,98052.41
2022-09-11T09:40:37.651Z,98049.66
2022-09-11T09:41:57.419Z,98051.44
2022-09-11T09:43:19.301Z,98056.44
2022-09-11T09:44:30.360Z,98057.22
2022-09-11T09:45:40.893Z,98055.84
2022-09-11T09:46:50.157Z,98056.88
2022-09-11T09:47:55.242Z,98062.03
2022-09-11T09:48:58.652Z,98054.72
2022-09-11T09:50:02.776Z,98056.22
2022-09-11T09:51:06.431Z,98063.56
2022-09-11T09:52:18.359Z,98058.50
2022-09-11T09:53:29.692Z,98056.06
2022-09-11T09:54:36.657Z,98059.88
2022-09-11T09:55:40.643Z,98067.25
2022-09-11T09:56:46.081Z,98061.56
2022-09-11T09:57:51.369Z,98062.38
2022-09-11T09:59:01.176Z,98067.09
2022-09-11T10:00:06.915Z,98064.63
2022-09-11T10:01:45.362Z,98063.63
2022-09-11T10:02:54.405Z,98066.69
2022-09-11T10:04:11.326Z,98058.59
2022-09-11T10:05:23.638Z,98066.13
2022-09-11T10:06:38.581Z,98067.16
2022-09-11T10:07:48.100Z,98061.25
2022-09-11T10:09:00.191Z,98064.91
2022-09-11T10:10:12.736Z,98068.56
2022-09-11T10:11:18.349Z,98063.09
2022-09-11T10:12:24.711Z,98060.63
2022-09-11T10:13:32.504Z,98064.69
2022-09-11T10:14:51.921Z,98074.25
2022-09-11T10:15:59.845Z,98076.47
2022-09-11T10:17:03.215Z,98069.19
2022-09-11T10:18:38.321Z,98074.06
2022-09-11T10:19:44.152Z,98068.56
2022-09-11T10:20:48.414Z,98056.94
2022-09-11T10:21:51.731Z,98071.38
2022-09-11T10:22:56.486Z,98071.94
2022-09-11T10:24:00.775Z,98070.72
2022-09-11T10:25:11.912Z,98075.81
2022-09-11T10:26:16.919Z,98066.28
2022-09-11T10:27:22.459Z,98072.16
2022-09-11T10:28:34.502Z,98069.44
2022-09-11T10:29:51.304Z,98064.56
2022-09-11T10:31:00.435Z,98067.00
2022-09-11T10:32:05.624Z,98069.19
2022-09-11T10:33:27.133Z,98075.50
2022-09-11T10:34:36.759Z,98068.97
2022-09-11T10:35:40.870Z,98074.84
2022-09-11T10:36:52.910Z,98068.66
2022-09-11T10:38:12.088Z,98063.66
2022-09-11T10:39:19.250Z,98057.69
2022-09-11T10:40:23.636Z,98064.28
2022-09-11T10:41:29.753Z,98059.75
2022-09-11T10:42:35.363Z,98060.72
2022-09-11T10:43:48.664Z,98065.75
2022-09-11T10:44:52.941Z,98063.22
2022-09-11T10:46:07.365Z,98060.53
2022-09-11T10:47:20.616Z,98062.94
2022-09-11T10:48:25.782Z,98067.13
2022-09-11T10:49:29.760Z,98060.59
2022-09-11T10:50:34.566Z,98063.59
2022-09-11T10:51:43.099Z,98059.06
2022-09-11T10:52:54.079Z,98066.06
2022-09-11T10:54:10.292Z,98074.16
2022-09-11T10:55:15.721Z,98072.41
2022-09-11T10:56:23.574Z,98068.19
2022-09-11T10:57:31.348Z,98075.75
2022-09-11T10:58:38.260Z,98065.94
2022-09-11T10:59:51.620Z,98073.56
2022-09-11T11:00:55.596Z,98075.09
2022-09-11T11:01:59.137Z,98067.03
2022-09-11T11:03:06.727Z,98072.13
2022-09-11T11:04:12.434Z,98077.19
2022-09-11T11:05:26.357Z,98075.84
2022-09-11T11:06:42.835Z,98076.19
2022-09-11T11:08:06.413Z,98078.75
2022-09-11T11:09:17.243Z,98075.13
2022-09-11T11:10:31.454Z,98075.22
2022-09-11T11:11:46.578Z,98076.28
2022-09-11T11:12:59.379Z,98085.09
2022-09-11T11:14:15.765Z,98063.63
2022-09-11T11:15:39.827Z,98082.78
2022-09-11T11:16:56.964Z,98074.44
2022-09-11T11:18:19.060Z,98079.84
2022-09-11T11:19:38.777Z,98077.59
2022-09-11T11:20:48.254Z,98077.41
2022-09-11T11:21:57.576Z,98087.31
2022-09-11T11:23:20.499Z,98081.69
2022-09-11T11:24:55.453Z,98081.16
2022-09-11T11:26:29.778Z,98082.25
2022-09-11T11:28:03.344Z,98082.91
2022-09-11T11:29:33.114Z,98080.09
2022-09-11T11:30:43.403Z,98076.63
2022-09-11T11:31:57.566Z,98078.88
2022-09-11T11:33:34.348Z,98080.19
2022-09-11T11:35:01.744Z,98075.00
2022-09-11T11:36:09.108Z,98073.31
2022-09-11T11:37:16.961Z,98068.75
2022-09-11T11:38:26.274Z,98079.84
2022-09-11T11:39:31.846Z,98078.41
2022-09-11T11:40:40.815Z,98072.31
2022-09-11T11:41:47.125Z,98071.94
2022-09-11T11:42:56.204Z,98078.28
2022-09-11T11:44:03.937Z,98077.13
2022-09-11T11:45:22.384Z,98079.31
2022-09-11T11:46:36.637Z,98077.47
2022-09-11T11:47:55.412Z,98061.78
2022-09-11T11:49:05.409Z,98068.72
2022-09-11T11:50:22.603Z,98074.84
2022-09-11T11:51:37.593Z,98074.56
2022-09-11T11:52:59.490Z,98072.19
2022-09-11T11:54:20.114Z,98067.13
2022-09-11T11:55:32.904Z,98065.31
2022-09-11T11:56:53.823Z,98070.41
2022-09-11T11:58:08.226Z,98070.63
2022-09-11T11:59:25.558Z,98062.28
2022-09-11T12:00:43.775Z,98060.44
2022-09-11T12:01:56.353Z,98055.91
2022-09-11T12:03:03.718Z,98063.47
2022-09-11T12:04:18.024Z,98061.81
2022-09-11T12:05:24.327Z,98064.88
2022-09-11T12:06:29.457Z,98068.72
2022-09-11T12:07:34.475Z,98064.03
2022-09-11T12:08:44.938Z,98055.50
2022-09-11T12:09:49.747Z,98050.59
2022-09-11T12:10:57.656Z,98057.06
2022-09-11T12:12:06.078Z,98050.53
2022-09-11T12:13:15.427Z,98054.56
2022-09-11T12:14:27.787Z,98044.97
2022-09-11T12:15:34.814Z,98045.50
2022-09-11T12:16:39.049Z,98051.16
2022-09-11T12:17:45.426Z,98044.97
2022-09-11T12:19:06.400Z,98060.16
2022-09-11T12:20:36.163Z,98052.13
2022-09-11T12:21:42.365Z,98057.28
2022-09-11T12:22:47.616Z,98051.75
2022-09-11T12:24:13.583Z,98052.78
2022-09-11T12:26:00.121Z,98051.53
2022-09-11T12:27:40.287Z,98050.47
2022-09-11T12:28:43.421Z,98053.03
2022-09-11T12:30:09.712Z,98042.41
2022-09-11T12:31:15.021Z,98059.56
2022-09-11T12:32:45.283Z,98047.53
2022-09-11T12:33:56.312Z,98054.94
2022-09-11T12:35:21.794Z,98046.78
2022-09-11T12:36:36.394Z,98052.22
2022-09-11T12:37:39.872Z,98056.53
2022-09-11T12:38:47.026Z,98062.88
2022-09-11T12:39:53.335Z,98056.19
2022-09-11T12:41:00.049Z,98053.19
2022-09-11T12:42:41.067Z,98053.06
2022-09-11T12:43:50.022Z,98059.00
2022-09-11T12:45:01.025Z,98057.25
2022-09-11T12:46:05.521Z,98050.41
2022-09-11T12:47:16.901Z,98052.75
2022-09-11T12:48:26.211Z,98046.94
2022-09-11T12:49:29.297Z,98049.41
2022-09-11T12:50:34.086Z,98048.66
2022-09-11T12:51:39.726Z,98052.97
2022-09-11T12:52:51.133Z,98044.81
2022-09-11T12:54:00.564Z,98051.56
2022-09-11T12:55:09.813Z,98049.75
2022-09-11T12:56:19.471Z,98047.47
2022-09-11T12:57:28.353Z,98047.66
2022-09-11T12:58:39.107Z,98043.41
2022-09-11T12:59:44.725Z,98046.03
2022-09-11T13:00:52.047Z,98048.69
2022-09-11T13:01:55.174Z,98059.47
2022-09-11T13:02:59.844Z,98049.06
2022-09-11T13:04:13.249Z,98050.28
2022-09-11T13:05:19.934Z,98050.03
2022-09-11T13:06:23.795Z,98048.59
2022-09-11T13:07:32.407Z,98053.06
2022-09-11T13:08:38.637Z,98055.69
2022-09-11T13:09:43.650Z,98051.63
2022-09-11T13:10:47.129Z,98058.91
2022-09-11T13:12:35.756Z,98047.16
2022-09-11T13:13:44.487Z,98050.41
2022-09-11T13:14:52.525Z,98045.16
2022-09-11T13:15:58.866Z,98051.31
2022-09-11T13:17:02.893Z,98044.25
2022-09-11T13:18:40.171Z,98043.91
2022-09-11T13:19:44.757Z,98049.78
2022-09-11T13:21:01.220Z,98052.25
2022-09-11T13:22:20.861Z,98046.34
2022-09-11T13:23:25.453Z,98048.16
2022-09-11T13:24:30.429Z,98048.97
2022-09-11T13:25:34.715Z,98047.34
2022-09-11T13:26:37.937Z,98038.81
2022-09-11T13:27:44.032Z,98039.22
2022-09-11T13:28:49.526Z,98038.84
2022-09-11T13:29:54.980Z,98031.53
2022-09-11T13:31:00.766Z,98042.97
2022-09-11T13:32:11.662Z,98044.63
2022-09-11T13:33:18.649Z,98045.47
2022-09-11T13:34:24.417Z,98052.19
2022-09-11T13:35:30.286Z,98039.88
2022-09-11T13:36:36.537Z,98042.75
2022-09-11T13:37:42.180Z,98047.63
2022-09-11T13:38:49.579Z,98045.00
2022-09-11T13:39:52.789Z,98052.75
2022-09-11T13:40:58.276Z,98047.31
2022-09-11T13:42:03.007Z,98053.22
2022-09-11T13:43:07.134Z,98049.00
2022-09-11T13:44:12.084Z,98044.28
2022-09-11T13:45:18.346Z,98037.63
2022-09-11T13:46:23.954Z,98037.19
2022-09-11T13:47:29.414Z,98038.00